Nearby METAR Reports

 

KSJC - San Jose, California, USA
Distance from station: NE 14km
Updated: 2020-06-04 06:53
Few Clouds
Few Clouds
 Wind from calm
Wind: Calm
Temperature: 18°C
Dew Point: 14°C
Humidity: 78%
Barometer: 1009.5 hPa
Clouds: Few Clouds
Visibility: 11 km
Cloud details: Few Clouds 305 m
Few Clouds 3048 m
2020/06/04 13:53 KSJC 041353Z 00000KT 7SM FEW010 FEW100 18/14 A2981 RMK AO2 SLP093 T01830144 $
KNUQ - Moffett Nas/Mtn, California, USA
Distance from station: N 14km
Updated: 2020-06-04 06:30
Clear
Clear
 Wind from calm
Wind: Calm
Temperature: 17°C
Dew Point: 14°C
Humidity: 83%
Barometer: 1009.5 hPa
Clouds: Clear
Visibility: 13 km
2020/06/04 13:30 KNUQ 041330Z AUTO 00000KT 8SM CLR 17/14 A2981 RMK AO2
 
KPAO - Palo Alto, California, USA
Distance from station: NNW 23km
Updated: 2020-06-03 15:47
NOT Current
Few Clouds
Few Clouds
 Wind from NNW
Wind: NNW 26 km/h
Temperature: 31°C
Dew Point: 14°C
Humidity: 35%
Barometer: 1012.5 hPa
Clouds: Few Clouds
Visibility: 16 km
Cloud details: Few Clouds 1524 m
2020/06/03 22:47 KPAO 032247Z 33014KT 10SM FEW050 31/14 A2990 RMK LAST
KRHV - San Jose/Reid, California, USA
Distance from station: ENE 19km
Updated: 2020-06-03 21:51
NOT Current
Clear
Clear
 Wind from WNW
Wind: WNW 7 km/h
Temperature: 26°C
Dew Point: 11°C
Humidity: 39%
Barometer: 1011.5 hPa
Clouds: Clear
Visibility: 16 km
2020/06/04 04:51 KRHV 040451Z 29004KT 10SM SKC 26/11 A2987 RMK LAST
 
KOAK - Oakland, California, USA
Distance from station: NNW 50km
Updated: 2020-06-04 06:53
Few Clouds
Few Clouds
 Wind from calm
Wind: Calm
Temperature: 17°C
Dew Point: 13°C
Humidity: 77%
Barometer: 1009.5 hPa
Clouds: Few Clouds
Visibility: 13 km
Cloud details: Few Clouds 7620 m
2020/06/04 13:53 KOAK 041353Z 00000KT 8SM FEW250 17/13 A2981 RMK AO2 SLP094 T01720133
KSQL - San Carlos Airpo, California, USA
Distance from station: NW 34km
Updated: 2020-06-04 06:47
Clear
Clear
 Wind from calm
Wind: Calm
Temperature: 17°C
Dew Point: 13°C
Humidity: 77%
Barometer: 1011.5 hPa
Clouds: Clear
Visibility: 16 km
2020/06/04 13:47 KSQL 041347Z 00000KT 10SM SKC 17/13 A2987
 
KSFO - San Francisco, California, USA
Distance from station: NW 49km
Updated: 2020-06-04 05:56
Few Clouds
Few Clouds
 Wind from W
Wind: W 17 km/h
Temperature: 13°C
Dew Point: 11°C
Humidity: 88%
Barometer: 1009.1 hPa
Clouds: Few Clouds
Visibility: 16 km
Cloud details: Few Clouds 6096 m
2020/06/04 12:56 KSFO 041256Z 28009KT 10SM FEW200 13/11 A2980 RMK AO2 SLP091 T01280106
KE16 - San Martin, California, USA
Distance from station: ESE 43km
Updated: 2020-06-04 06:25
Clear
Clear
 Wind from calm
Wind: Calm
Temperature: 15°C
Dew Point: 10°C
Humidity: 72%
Barometer: 1010.2 hPa
Clouds: Clear
Visibility: 16 km
2020/06/04 13:25 KE16 041325Z AUTO 00000KT 10SM CLR 15/10 A2983 RMK AO2 PWINO PNO
 
KWVI - Watsonville, California, USA
Distance from station: SSE 44km
Updated: 2020-06-04 06:53
Clear
Clear
 Wind from calm
Wind: Calm
Barometer: 1009.5 hPa
Clouds: Clear
Visibility: 13 km
2020/06/04 13:53 KWVI 041353Z AUTO 00000KT 8SM CLR A2981 RMK AO2 SLPNO $
KHAF - Half Moon Bay, California, USA
Distance from station: WNW 50km
Updated: 2020-06-04 06:35
Mist, Clear
Mist, Clear
 Wind from calm
Wind: Calm
Temperature: 8°C
Dew Point: 8°C
Humidity: 100%
Barometer: 1010.2 hPa
Summary: Mist
Clouds: Clear
Visibility: 6 km
2020/06/04 13:35 KHAF 041335Z AUTO 00000KT 4SM BR CLR 08/08 A2983 RMK AO2
 
KHWD - Hayward, California, USA
Distance from station: N 44km
Updated: 2020-06-04 05:54
Clear
Clear
 Wind from NE
Wind: NE 6 km/h
Temperature: 16°C
Dew Point: 12°C
Humidity: 77%
Barometer: 1009.1 hPa
Clouds: Clear
Visibility: 13 km
2020/06/04 12:54 KHWD 041254Z 04003KT 8SM CLR 16/12 A2980 RMK AO2 SLP099 T01610122
KLVK - Livermore, California, USA
Distance from station: NNE 51km
Updated: 2020-06-04 06:53
Clear
Clear
 Wind from calm
Wind: Calm
Temperature: 19°C
Dew Point: 9°C
Humidity: 52%
Barometer: 1009.1 hPa
Clouds: Clear
Visibility: 16 km
2020/06/04 13:53 KLVK 041353Z AUTO 00000KT 10SM CLR 19/09 A2980 RMK AO2 SLP087 T01890094